createdAt,value
2018-10-17T00:01:50.907Z,9.85
2018-10-17T00:03:53.903Z,9.86
2018-10-17T00:05:56.903Z,9.83
2018-10-17T00:08:00.152Z,9.83
2018-10-17T00:10:04.951Z,9.81
2018-10-17T00:12:07.932Z,9.82
2018-10-17T00:14:10.966Z,9.98
2018-10-17T00:16:13.935Z,9.94
2018-10-17T00:18:16.971Z,9.91
2018-10-17T00:20:20.046Z,9.80
2018-10-17T00:22:23.067Z,10.02
2018-10-17T00:24:26.422Z,10.13
2018-10-17T00:26:29.453Z,10.04
2018-10-17T00:28:34.064Z,9.80
2018-10-17T00:30:37.095Z,9.98
2018-10-17T00:32:40.105Z,9.91
2018-10-17T00:34:43.162Z,9.72
2018-10-17T00:36:46.307Z,9.46
2018-10-17T00:38:49.344Z,9.45
2018-10-17T00:40:52.463Z,9.38
2018-10-17T00:42:56.465Z,9.37
2018-10-17T00:44:59.465Z,9.34
2018-10-17T00:47:04.557Z,9.33
2018-10-17T00:49:07.780Z,9.29
2018-10-17T00:51:10.733Z,9.27
2018-10-17T00:53:13.852Z,9.30
2018-10-17T00:55:16.852Z,9.33
2018-10-17T00:57:19.836Z,9.32
2018-10-17T00:59:22.824Z,9.30
2018-10-17T01:01:26.714Z,9.22
2018-10-17T01:03:29.705Z,9.21
2018-10-17T01:05:34.464Z,9.19
2018-10-17T01:07:37.808Z,9.17
2018-10-17T01:09:40.873Z,9.17
2018-10-17T01:11:43.962Z,9.10
2018-10-17T01:13:47.012Z,9.02
2018-10-17T01:15:50.053Z,8.96
2018-10-17T01:17:53.064Z,9.05
2018-10-17T01:19:56.385Z,8.94
2018-10-17T01:21:59.419Z,8.80
2018-10-17T01:24:02.483Z,8.89
2018-10-17T01:26:07.176Z,9.16
2018-10-17T01:28:10.192Z,9.45
2018-10-17T01:30:13.187Z,9.28
2018-10-17T01:32:16.205Z,9.01
2018-10-17T01:34:19.231Z,8.89
2018-10-17T01:36:22.232Z,8.82
2018-10-17T01:38:25.217Z,8.71
2018-10-17T01:40:28.244Z,8.75
2018-10-17T01:42:31.248Z,8.71
2018-10-17T01:44:35.650Z,9.10
2018-10-17T01:46:38.631Z,9.05
2018-10-17T01:48:41.577Z,9.02
2018-10-17T01:50:44.576Z,8.92
2018-10-17T01:52:47.555Z,8.99
2018-10-17T01:54:50.571Z,8.87
2018-10-17T01:56:53.571Z,8.61
2018-10-17T01:58:56.613Z,8.53
2018-10-17T02:00:59.660Z,8.59
2018-10-17T02:03:04.771Z,8.49
2018-10-17T02:05:07.976Z,8.38
2018-10-17T02:07:11.027Z,8.27
2018-10-17T02:09:14.012Z,8.29
2018-10-17T02:11:17.087Z,8.31
2018-10-17T02:13:21.023Z,8.33
2018-10-17T02:15:24.019Z,8.36
2018-10-17T02:17:27.031Z,8.37
2018-10-17T02:19:30.066Z,8.28
2018-10-17T02:21:34.435Z,8.22
2018-10-17T02:23:37.489Z,8.23
2018-10-17T02:25:40.491Z,8.47
2018-10-17T02:27:43.499Z,8.61
2018-10-17T02:29:46.969Z,8.64
2018-10-17T02:31:50.055Z,8.74
2018-10-17T02:33:53.067Z,8.44
2018-10-17T02:35:56.098Z,8.19
2018-10-17T02:37:59.144Z,8.17
2018-10-17T02:40:02.161Z,8.17
2018-10-17T02:42:07.473Z,8.16
2018-10-17T02:44:10.524Z,8.12
2018-10-17T02:46:13.548Z,8.05
2018-10-17T02:48:16.620Z,7.95
2018-10-17T02:50:19.636Z,7.94
2018-10-17T02:52:22.633Z,7.76
2018-10-17T02:54:26.083Z,7.72
2018-10-17T02:56:29.164Z,7.75
2018-10-17T02:58:32.220Z,7.82
2018-10-17T03:00:36.433Z,8.29
2018-10-17T03:02:39.450Z,8.49
2018-10-17T03:04:42.454Z,8.31
2018-10-17T03:06:45.504Z,7.97
2018-10-17T03:08:48.543Z,7.83
2018-10-17T03:10:52.010Z,7.78
2018-10-17T03:12:55.139Z,7.84
2018-10-17T03:14:58.174Z,8.01
2018-10-17T03:17:02.123Z,7.93
2018-10-17T03:19:06.560Z,7.84
2018-10-17T03:21:09.980Z,7.77
2018-10-17T03:23:13.152Z,7.81
2018-10-17T03:25:16.175Z,7.77
2018-10-17T03:27:19.151Z,7.75
2018-10-17T03:29:22.174Z,7.67
2018-10-17T03:31:25.311Z,7.65
2018-10-17T03:33:28.267Z,7.60
2018-10-17T03:35:31.296Z,7.52
2018-10-17T03:37:35.904Z,7.41
2018-10-17T03:39:38.897Z,7.41
2018-10-17T03:41:41.908Z,7.52
2018-10-17T03:43:44.891Z,7.64
2018-10-17T03:45:47.865Z,7.57
2018-10-17T03:47:50.905Z,7.81
2018-10-17T03:49:54.014Z,7.91
2018-10-17T03:51:56.920Z,7.81
2018-10-17T03:53:59.884Z,7.67
2018-10-17T03:56:04.338Z,7.74
2018-10-17T03:58:07.302Z,7.95
2018-10-17T04:00:10.353Z,7.76
2018-10-17T04:02:13.332Z,7.69
2018-10-17T04:04:16.340Z,7.61
2018-10-17T04:06:19.646Z,7.54
2018-10-17T04:08:22.624Z,7.48
2018-10-17T04:10:25.645Z,7.43
2018-10-17T04:12:28.664Z,7.40
2018-10-17T04:14:31.665Z,7.34
2018-10-17T04:16:35.997Z,7.36
2018-10-17T04:18:39.015Z,7.35
2018-10-17T04:20:42.020Z,7.34
2018-10-17T04:22:49.657Z,7.29
2018-10-17T04:24:52.818Z,7.36
2018-10-17T04:26:55.882Z,7.32
2018-10-17T04:28:59.032Z,7.32
2018-10-17T04:31:02.137Z,7.22
2018-10-17T04:33:06.466Z,7.30
2018-10-17T04:35:09.683Z,7.27
2018-10-17T04:37:12.813Z,7.26
2018-10-17T04:39:15.848Z,7.29
2018-10-17T04:41:19.084Z,7.37
2018-10-17T04:43:22.044Z,7.43
2018-10-17T04:45:25.085Z,7.28
2018-10-17T04:47:28.177Z,7.60
2018-10-17T04:49:31.237Z,7.56
2018-10-17T04:51:35.629Z,7.38
2018-10-17T04:53:38.928Z,7.24
2018-10-17T04:55:41.939Z,7.04
2018-10-17T04:57:44.981Z,6.98
2018-10-17T04:59:48.274Z,6.95
2018-10-17T05:01:51.318Z,6.92
2018-10-17T05:03:54.365Z,6.92
2018-10-17T05:05:57.407Z,6.85
2018-10-17T05:08:00.433Z,6.76
2018-10-17T05:10:04.892Z,6.78
2018-10-17T05:12:08.173Z,6.72
2018-10-17T05:14:11.244Z,6.82
2018-10-17T05:16:14.286Z,6.81
2018-10-17T05:18:17.345Z,7.14
2018-10-17T05:20:20.371Z,7.30
2018-10-17T05:22:23.421Z,7.05
2018-10-17T05:24:26.421Z,6.96
2018-10-17T05:26:29.681Z,6.82
2018-10-17T05:28:34.081Z,6.79
2018-10-17T05:30:37.115Z,6.81
2018-10-17T05:32:40.152Z,6.74
2018-10-17T05:34:43.277Z,6.94
2018-10-17T05:36:46.333Z,7.02
2018-10-17T05:38:49.412Z,7.11
2018-10-17T05:40:52.539Z,7.10
2018-10-17T05:42:55.571Z,7.04
2018-10-17T05:44:58.923Z,7.12
2018-10-17T05:47:02.005Z,7.01
2018-10-17T05:49:07.031Z,6.88
2018-10-17T05:51:10.286Z,6.80
2018-10-17T05:53:13.365Z,6.83
2018-10-17T05:55:16.573Z,6.80
2018-10-17T05:57:19.523Z,6.83
2018-10-17T05:59:22.581Z,6.90
2018-10-17T06:01:25.670Z,7.05
2018-10-17T06:03:28.654Z,6.94
2018-10-17T06:05:31.696Z,6.84
2018-10-17T06:07:36.131Z,6.80
2018-10-17T06:09:39.217Z,6.78
2018-10-17T06:11:42.369Z,6.83
2018-10-17T06:13:45.425Z,6.86
2018-10-17T06:15:48.466Z,6.86
2018-10-17T06:17:51.573Z,6.89
2018-10-17T06:19:54.619Z,7.42
2018-10-17T06:21:57.701Z,7.40
2018-10-17T06:24:00.797Z,7.36
2018-10-17T06:26:05.024Z,7.26
2018-10-17T06:28:08.411Z,7.19
2018-10-17T06:30:11.502Z,7.49
2018-10-17T06:32:14.525Z,7.31
2018-10-17T06:34:17.651Z,7.28
2018-10-17T06:36:20.628Z,7.32
2018-10-17T06:38:23.672Z,7.34
2018-10-17T06:40:27.009Z,7.40
2018-10-17T06:42:30.075Z,7.48
2018-10-17T06:44:34.492Z,7.63
2018-10-17T06:46:37.801Z,7.82
2018-10-17T06:48:40.857Z,7.94
2018-10-17T06:50:43.953Z,8.03
2018-10-17T06:52:47.073Z,8.08
2018-10-17T06:54:50.183Z,8.53
2018-10-17T06:56:53.221Z,8.75
2018-10-17T06:58:56.510Z,8.78
2018-10-17T07:00:59.597Z,8.78
2018-10-17T07:03:03.849Z,8.63
2018-10-17T07:05:07.899Z,8.71
2018-10-17T07:07:11.229Z,8.86
2018-10-17T07:09:14.178Z,8.95
2018-10-17T07:11:17.619Z,9.11
2018-10-17T07:13:20.932Z,9.28
2018-10-17T07:15:23.941Z,9.40
2018-10-17T07:17:26.936Z,9.54
2018-10-17T07:19:30.001Z,9.69
2018-10-17T07:21:34.359Z,9.86
2018-10-17T07:23:37.400Z,10.04
2018-10-17T07:25:40.505Z,10.19
2018-10-17T07:27:43.558Z,10.35
2018-10-17T07:29:46.771Z,10.64
2018-10-17T07:31:49.746Z,10.79
2018-10-17T07:33:52.778Z,10.87
2018-10-17T07:35:55.899Z,11.00
2018-10-17T07:37:58.920Z,11.27
2018-10-17T07:40:02.234Z,11.45
2018-10-17T07:42:07.164Z,11.44
2018-10-17T07:44:10.203Z,11.49
2018-10-17T07:46:13.319Z,11.50
2018-10-17T07:48:16.591Z,11.64
2018-10-17T07:50:19.641Z,11.87
2018-10-17T07:52:22.693Z,11.85
2018-10-17T07:54:25.760Z,12.13
2018-10-17T07:56:28.820Z,12.08
2018-10-17T07:58:32.125Z,11.90
2018-10-17T08:00:36.414Z,12.12
2018-10-17T08:02:39.551Z,12.29
2018-10-17T08:04:42.690Z,12.29
2018-10-17T08:06:45.789Z,12.38
2018-10-17T08:08:48.784Z,12.71
2018-10-17T08:10:51.894Z,12.81
2018-10-17T08:12:54.963Z,12.85
2018-10-17T08:14:58.030Z,13.04
2018-10-17T08:17:01.110Z,13.31
2018-10-17T08:19:06.177Z,13.32
2018-10-17T08:21:09.219Z,13.60
2018-10-17T08:23:12.373Z,13.78
2018-10-17T08:25:15.420Z,13.83
2018-10-17T08:27:18.475Z,13.91
2018-10-17T08:29:22.011Z,14.14
2018-10-17T08:31:25.484Z,14.35
2018-10-17T08:33:28.501Z,14.34
2018-10-17T08:35:31.689Z,14.48
2018-10-17T08:37:36.771Z,14.72
2018-10-17T08:39:39.511Z,14.73
2018-10-17T08:41:42.581Z,14.90
2018-10-17T08:43:45.603Z,14.99
2018-10-17T08:45:48.745Z,15.13
2018-10-17T08:47:51.833Z,15.28
2018-10-17T08:49:54.900Z,15.36
2018-10-17T08:51:57.934Z,15.47
2018-10-17T08:54:00.984Z,15.70
2018-10-17T08:56:04.693Z,15.62
2018-10-17T08:58:07.695Z,15.80
2018-10-17T09:00:10.789Z,15.78
2018-10-17T09:02:13.947Z,16.03
2018-10-17T09:04:17.001Z,16.31
2018-10-17T09:06:20.174Z,16.43
2018-10-17T09:08:23.271Z,16.44
2018-10-17T09:10:26.223Z,16.54
2018-10-17T09:12:29.305Z,16.56
2018-10-17T09:14:32.390Z,16.61
2018-10-17T09:16:35.494Z,16.70
2018-10-17T09:18:38.547Z,16.90
2018-10-17T09:20:41.788Z,17.03
2018-10-17T09:22:44.685Z,17.41
2018-10-17T09:24:47.753Z,17.62
2018-10-17T09:26:50.791Z,17.71
2018-10-17T09:28:54.237Z,17.90
2018-10-17T09:30:57.284Z,17.94
2018-10-17T09:33:00.384Z,18.22
2018-10-17T09:35:05.571Z,18.22
2018-10-17T09:37:08.569Z,18.31
2018-10-17T09:39:11.950Z,18.60
2018-10-17T09:41:15.009Z,18.93
2018-10-17T09:43:18.097Z,18.77
2018-10-17T09:45:21.016Z,18.92
2018-10-17T09:47:24.063Z,19.12
2018-10-17T09:49:27.043Z,19.06
2018-10-17T09:51:30.049Z,19.02
2018-10-17T09:53:34.392Z,18.82
2018-10-17T09:55:37.428Z,19.17
2018-10-17T09:57:40.439Z,19.32
2018-10-17T09:59:43.476Z,19.44
2018-10-17T10:01:50.061Z,19.35
2018-10-17T10:03:53.245Z,19.56
2018-10-17T10:05:56.412Z,19.81
2018-10-17T10:07:59.365Z,19.47
2018-10-17T10:10:02.514Z,19.84
2018-10-17T10:12:06.960Z,19.77
2018-10-17T10:14:09.923Z,20.03
2018-10-17T10:16:13.067Z,20.11
2018-10-17T10:18:16.013Z,20.43
2018-10-17T10:20:19.036Z,20.44
2018-10-17T10:22:22.337Z,20.66
2018-10-17T10:24:25.348Z,20.73
2018-10-17T10:26:28.381Z,20.66
2018-10-17T10:28:31.524Z,20.84
2018-10-17T10:30:35.896Z,20.66
2018-10-17T10:32:38.872Z,20.60
2018-10-17T10:34:41.901Z,20.66
2018-10-17T10:36:44.928Z,21.00
2018-10-17T10:38:47.945Z,21.19
2018-10-17T10:40:50.985Z,21.39
2018-10-17T10:42:53.981Z,21.35
2018-10-17T10:44:57.079Z,21.54
2018-10-17T10:47:00.043Z,21.38
2018-10-17T10:49:03.668Z,21.47
2018-10-17T10:51:07.239Z,21.30
2018-10-17T10:53:10.805Z,21.25
2018-10-17T10:55:13.812Z,21.23
2018-10-17T10:57:16.870Z,21.46
2018-10-17T10:59:19.990Z,21.32
2018-10-17T11:01:22.968Z,21.64
2018-10-17T11:03:25.959Z,21.54
2018-10-17T11:05:29.124Z,21.85
2018-10-17T11:07:32.040Z,22.10
2018-10-17T11:09:36.341Z,22.26
2018-10-17T11:11:39.571Z,22.45
2018-10-17T11:13:42.604Z,22.58
2018-10-17T11:15:45.951Z,22.57
2018-10-17T11:17:48.949Z,22.82
2018-10-17T11:19:51.986Z,22.53
2018-10-17T11:21:55.075Z,22.74
2018-10-17T11:23:58.017Z,22.54
2018-10-17T11:26:01.074Z,22.68
2018-10-17T11:28:05.840Z,22.87
2018-10-17T11:30:10.276Z,22.57
2018-10-17T11:32:13.275Z,22.52
2018-10-17T11:34:16.336Z,22.58
2018-10-17T11:36:19.321Z,22.54
2018-10-17T11:38:22.310Z,22.54
2018-10-17T11:40:25.361Z,23.14
2018-10-17T11:42:28.388Z,23.46
2018-10-17T11:44:31.373Z,23.33
2018-10-17T11:46:35.955Z,23.29
2018-10-17T11:48:38.924Z,23.34
2018-10-17T11:50:41.941Z,23.53
2018-10-17T11:52:44.963Z,23.47
2018-10-17T11:54:47.981Z,23.36
2018-10-17T11:56:51.103Z,23.71
2018-10-17T11:58:54.471Z,23.05
2018-10-17T12:00:57.442Z,23.10
2018-10-17T12:03:00.502Z,23.49
2018-10-17T12:05:05.135Z,23.54
2018-10-17T12:07:07.784Z,23.37
2018-10-17T12:09:10.824Z,23.45
2018-10-17T12:11:13.841Z,23.65
2018-10-17T12:13:16.814Z,23.75
2018-10-17T12:15:19.911Z,23.93
2018-10-17T12:17:22.869Z,23.91
2018-10-17T12:19:25.924Z,23.98
2018-10-17T12:21:28.937Z,23.89
2018-10-17T12:23:31.956Z,24.29
2018-10-17T12:25:36.166Z,24.10
2018-10-17T12:27:39.283Z,24.19
2018-10-17T12:29:42.308Z,23.75
2018-10-17T12:31:45.327Z,24.05
2018-10-17T12:33:48.368Z,24.16
2018-10-17T12:35:51.487Z,24.53
2018-10-17T12:37:54.472Z,24.52
2018-10-17T12:39:57.592Z,24.42
2018-10-17T12:42:00.479Z,24.63
2018-10-17T12:44:05.567Z,24.75
2018-10-17T12:46:08.623Z,24.68
2018-10-17T12:48:11.649Z,24.75
2018-10-17T12:50:14.743Z,24.85
2018-10-17T12:52:17.811Z,24.23
2018-10-17T12:54:20.770Z,24.38
2018-10-17T12:56:23.789Z,24.25
2018-10-17T12:58:26.908Z,23.95
2018-10-17T13:00:30.298Z,23.90
2018-10-17T13:02:34.600Z,24.26
2018-10-17T13:04:37.901Z,24.10
2018-10-17T13:06:41.170Z,24.23
2018-10-17T13:08:44.311Z,24.35
2018-10-17T13:10:47.269Z,24.65
2018-10-17T13:12:50.553Z,24.48
2018-10-17T13:14:53.593Z,24.37
2018-10-17T13:16:56.646Z,24.62
2018-10-17T13:18:59.683Z,24.54
2018-10-17T13:21:04.091Z,24.66
2018-10-17T13:23:07.216Z,24.88
2018-10-17T13:25:10.285Z,24.96
2018-10-17T13:27:13.214Z,25.22
2018-10-17T13:29:16.378Z,25.15
2018-10-17T13:31:19.365Z,24.94
2018-10-17T13:33:22.385Z,25.13
2018-10-17T13:35:25.416Z,25.17
2018-10-17T13:37:28.427Z,24.73
2018-10-17T13:39:31.705Z,25.15
2018-10-17T13:41:36.226Z,25.28
2018-10-17T13:43:39.261Z,25.14
2018-10-17T13:45:42.357Z,25.20
2018-10-17T13:47:45.385Z,25.29
2018-10-17T13:49:48.693Z,25.31
2018-10-17T13:51:51.600Z,25.48
2018-10-17T13:53:58.681Z,25.18
2018-10-17T13:56:01.727Z,25.03
2018-10-17T13:58:07.073Z,24.96
2018-10-17T14:00:11.569Z,24.83
2018-10-17T14:02:14.585Z,25.23
2018-10-17T14:04:18.137Z,25.04
2018-10-17T14:06:21.338Z,24.68
2018-10-17T14:08:24.385Z,25.01
2018-10-17T14:10:27.439Z,24.94
2018-10-17T14:12:30.511Z,25.05
2018-10-17T14:14:34.904Z,25.09
2018-10-17T14:16:37.923Z,24.86
2018-10-17T14:18:40.945Z,24.33
2018-10-17T14:20:43.929Z,24.45
2018-10-17T14:22:46.973Z,24.61
2018-10-17T14:24:50.021Z,24.78
2018-10-17T14:26:53.141Z,24.95
2018-10-17T14:28:56.285Z,24.85
2018-10-17T14:30:59.381Z,24.88
2018-10-17T14:33:02.436Z,24.76
2018-10-17T14:35:10.074Z,25.24
2018-10-17T14:37:13.237Z,25.25
2018-10-17T14:39:16.270Z,25.21
2018-10-17T14:41:19.379Z,25.07
2018-10-17T14:43:22.361Z,25.02
2018-10-17T14:45:25.423Z,25.27
2018-10-17T14:47:28.467Z,25.17
2018-10-17T14:49:31.486Z,25.01
2018-10-17T14:51:35.573Z,24.67
2018-10-17T14:53:38.777Z,24.44
2018-10-17T14:55:41.833Z,24.65
2018-10-17T14:57:44.804Z,24.19
2018-10-17T14:59:47.935Z,24.58
2018-10-17T15:01:51.402Z,24.66
2018-10-17T15:03:54.417Z,24.47
2018-10-17T15:05:57.980Z,24.54
2018-10-17T15:08:01.019Z,24.34
2018-10-17T15:10:05.580Z,24.34
2018-10-17T15:12:10.289Z,24.46
2018-10-17T15:14:13.399Z,24.77
2018-10-17T15:16:16.386Z,24.62
2018-10-17T15:18:19.457Z,24.75
2018-10-17T15:20:22.512Z,24.28
2018-10-17T15:22:25.609Z,23.92
2018-10-17T15:24:28.682Z,23.61
2018-10-17T15:26:31.736Z,23.36
2018-10-17T15:28:36.198Z,23.13
2018-10-17T15:30:39.231Z,22.82
2018-10-17T15:32:42.291Z,22.71
2018-10-17T15:34:45.420Z,22.56
2018-10-17T15:36:48.519Z,22.38
2018-10-17T15:38:51.665Z,22.08
2018-10-17T15:40:54.691Z,21.94
2018-10-17T15:42:57.915Z,21.54
2018-10-17T15:45:01.533Z,21.72
2018-10-17T15:47:05.847Z,21.46
2018-10-17T15:49:08.906Z,21.24
2018-10-17T15:51:12.004Z,21.23
2018-10-17T15:53:15.175Z,20.91
2018-10-17T15:55:18.066Z,20.69
2018-10-17T15:57:21.056Z,20.69
2018-10-17T15:59:24.077Z,20.52
2018-10-17T16:01:27.322Z,20.42
2018-10-17T16:03:30.401Z,20.20
2018-10-17T16:05:34.878Z,20.12
2018-10-17T16:07:37.906Z,19.93
2018-10-17T16:09:40.926Z,19.91
2018-10-17T16:11:44.461Z,19.87
2018-10-17T16:13:47.352Z,19.75
2018-10-17T16:15:50.470Z,19.61
2018-10-17T16:17:53.671Z,19.53
2018-10-17T16:19:56.699Z,19.36
2018-10-17T16:21:59.640Z,19.24
2018-10-17T16:24:04.994Z,19.12
2018-10-17T16:26:07.998Z,19.17
2018-10-17T16:28:10.955Z,18.97
2018-10-17T16:30:14.015Z,18.80
2018-10-17T16:32:17.082Z,18.59
2018-10-17T16:34:20.076Z,18.58
2018-10-17T16:36:23.140Z,18.46
2018-10-17T16:38:26.161Z,18.38
2018-10-17T16:40:29.125Z,18.30
2018-10-17T16:42:32.474Z,18.22
2018-10-17T16:44:36.713Z,17.96
2018-10-17T16:46:39.764Z,17.83
2018-10-17T16:48:43.161Z,17.80
2018-10-17T16:50:46.223Z,17.66
2018-10-17T16:52:49.159Z,17.74
2018-10-17T16:54:52.248Z,17.68
2018-10-17T16:56:55.264Z,17.78
2018-10-17T16:58:58.277Z,17.55
2018-10-17T17:01:01.306Z,17.68
2018-10-17T17:03:06.073Z,17.63
2018-10-17T17:05:11.489Z,17.32
2018-10-17T17:07:14.509Z,17.29
2018-10-17T17:09:17.679Z,17.36
2018-10-17T17:11:20.571Z,17.42
2018-10-17T17:13:23.589Z,17.07
2018-10-17T17:15:26.560Z,16.98
2018-10-17T17:17:29.545Z,16.85
2018-10-17T17:19:33.760Z,16.73
2018-10-17T17:21:36.811Z,16.99
2018-10-17T17:23:39.789Z,16.90
2018-10-17T17:25:42.814Z,16.89
2018-10-17T17:27:45.783Z,16.80
2018-10-17T17:29:49.132Z,16.68
2018-10-17T17:31:52.158Z,16.57
2018-10-17T17:33:55.145Z,16.28
2018-10-17T17:35:58.168Z,16.09
2018-10-17T17:38:01.169Z,15.95
2018-10-17T17:40:06.023Z,15.93
2018-10-17T17:42:09.065Z,15.75
2018-10-17T17:44:12.037Z,15.58
2018-10-17T17:46:15.143Z,15.47
2018-10-17T17:48:18.111Z,15.58
2018-10-17T17:50:21.084Z,15.52
2018-10-17T17:52:24.121Z,15.45
2018-10-17T17:54:27.075Z,15.33
2018-10-17T17:56:30.057Z,15.28
2018-10-17T17:58:34.454Z,15.26
2018-10-17T18:00:37.368Z,15.15
2018-10-17T18:02:40.737Z,15.08
2018-10-17T18:04:43.752Z,15.01
2018-10-17T18:06:46.771Z,14.95
2018-10-17T18:08:49.803Z,14.92
2018-10-17T18:10:52.796Z,14.84
2018-10-17T18:12:55.801Z,14.78
2018-10-17T18:14:58.823Z,14.69
2018-10-17T18:17:02.109Z,14.69
2018-10-17T18:19:06.985Z,14.90
2018-10-17T18:21:10.001Z,14.87
2018-10-17T18:23:13.065Z,14.83
2018-10-17T18:25:16.066Z,14.70
2018-10-17T18:27:19.090Z,14.67
2018-10-17T18:29:22.077Z,14.65
2018-10-17T18:31:25.344Z,14.52
2018-10-17T18:33:28.323Z,14.55
2018-10-17T18:35:31.337Z,14.60
2018-10-17T18:37:36.253Z,14.44
2018-10-17T18:39:39.284Z,14.33
2018-10-17T18:41:42.301Z,14.24
2018-10-17T18:43:45.270Z,14.25
2018-10-17T18:45:48.704Z,14.20
2018-10-17T18:47:51.769Z,14.12
2018-10-17T18:49:54.722Z,14.06
2018-10-17T18:51:58.014Z,14.08
2018-10-17T18:54:00.988Z,14.01
2018-10-17T18:56:05.654Z,13.99
2018-10-17T18:58:08.901Z,14.13
2018-10-17T19:00:11.877Z,14.31
2018-10-17T19:02:14.856Z,14.30
2018-10-17T19:04:18.074Z,14.01
2018-10-17T19:06:21.083Z,13.81
2018-10-17T19:08:24.073Z,13.70
2018-10-17T19:10:27.087Z,13.60
2018-10-17T19:12:30.092Z,13.49
2018-10-17T19:14:34.581Z,13.44
2018-10-17T19:16:37.615Z,13.40
2018-10-17T19:18:40.604Z,13.49
2018-10-17T19:20:43.611Z,13.33
2018-10-17T19:22:46.616Z,13.25
2018-10-17T19:24:49.643Z,13.22
2018-10-17T19:26:52.694Z,12.96
2018-10-17T19:28:55.634Z,12.90
2018-10-17T19:30:58.606Z,12.92
2018-10-17T19:33:01.645Z,12.95
2018-10-17T19:35:06.695Z,13.02
2018-10-17T19:37:09.657Z,13.34
2018-10-17T19:39:13.250Z,13.38
2018-10-17T19:41:16.318Z,13.16
2018-10-17T19:43:19.315Z,13.01
2018-10-17T19:45:22.343Z,12.80
2018-10-17T19:47:25.661Z,12.73
2018-10-17T19:49:28.675Z,12.75
2018-10-17T19:51:31.693Z,12.51
2018-10-17T19:53:36.000Z,12.61
2018-10-17T19:55:39.003Z,12.94
2018-10-17T19:57:42.016Z,12.70
2018-10-17T19:59:45.275Z,12.62
2018-10-17T20:01:48.250Z,12.64
2018-10-17T20:03:51.393Z,12.54
2018-10-17T20:05:54.420Z,12.49
2018-10-17T20:07:57.414Z,12.42
2018-10-17T20:10:00.380Z,12.39
2018-10-17T20:12:05.091Z,12.65
2018-10-17T20:14:08.809Z,12.61
2018-10-17T20:16:11.815Z,12.45
2018-10-17T20:18:15.154Z,12.36
2018-10-17T20:20:18.169Z,12.48
2018-10-17T20:22:21.277Z,12.32
2018-10-17T20:24:24.296Z,12.29
2018-10-17T20:26:27.284Z,12.16
2018-10-17T20:28:30.360Z,12.07
2018-10-17T20:30:35.115Z,11.85
2018-10-17T20:32:38.157Z,11.86
2018-10-17T20:34:41.105Z,11.74
2018-10-17T20:36:44.138Z,11.70
2018-10-17T20:38:47.119Z,11.69
2018-10-17T20:40:50.127Z,11.82
2018-10-17T20:42:53.186Z,12.17
2018-10-17T20:44:56.192Z,12.14
2018-10-17T20:46:59.197Z,11.86
2018-10-17T20:49:02.309Z,12.00
2018-10-17T20:51:06.412Z,12.00
2018-10-17T20:53:11.488Z,12.01
2018-10-17T20:55:14.581Z,11.94
2018-10-17T21:01:50.141Z,11.67
2018-10-17T21:03:53.358Z,11.64
2018-10-17T21:05:56.426Z,11.77
2018-10-17T21:07:59.455Z,11.60
2018-10-17T21:10:02.433Z,11.44
2018-10-17T21:12:07.368Z,11.33
2018-10-17T21:14:10.943Z,11.34
2018-10-17T21:16:13.921Z,11.18
2018-10-17T21:18:16.955Z,11.36
2018-10-17T21:20:19.904Z,11.23
2018-10-17T21:22:22.873Z,11.22
2018-10-17T21:24:26.236Z,11.43
2018-10-17T21:26:29.273Z,11.32
2018-10-17T21:28:32.257Z,11.38
2018-10-17T21:30:36.455Z,11.30
2018-10-17T21:32:39.445Z,11.20
2018-10-17T21:34:42.421Z,11.23
2018-10-17T21:36:45.425Z,11.10
2018-10-17T21:38:48.409Z,10.98
2018-10-17T21:40:51.783Z,10.91
2018-10-17T21:42:55.009Z,10.88
2018-10-17T21:44:58.095Z,10.87
2018-10-17T21:47:01.121Z,10.78
2018-10-17T21:49:05.077Z,10.83
2018-10-17T21:51:08.030Z,10.96
2018-10-17T21:53:11.008Z,10.87
2018-10-17T21:55:14.006Z,11.25
2018-10-17T21:57:16.985Z,10.99
2018-10-17T21:59:19.950Z,10.96
2018-10-17T22:01:23.021Z,10.77
2018-10-17T22:03:26.380Z,10.65
2018-10-17T22:05:29.347Z,10.47
2018-10-17T22:07:32.433Z,10.31
2018-10-17T22:09:36.830Z,10.12
2018-10-17T22:11:39.828Z,10.17
2018-10-17T22:13:42.792Z,10.13
2018-10-17T22:15:45.777Z,10.02
2018-10-17T22:17:48.753Z,10.33
2018-10-17T22:19:51.808Z,10.41
2018-10-17T22:21:54.778Z,10.28
2018-10-17T22:23:57.796Z,10.13
2018-10-17T22:26:00.938Z,10.08
2018-10-17T22:28:05.897Z,10.10
2018-10-17T22:30:09.032Z,10.35
2018-10-17T22:32:12.073Z,10.47
2018-10-17T22:34:15.032Z,10.25
2018-10-17T22:40:50.637Z,10.35
2018-10-17T22:42:53.663Z,10.40
2018-10-17T22:44:56.636Z,10.24
2018-10-17T22:46:59.653Z,10.35
2018-10-17T22:49:04.488Z,10.25
2018-10-17T22:51:07.475Z,10.22
2018-10-17T22:53:10.472Z,10.20
2018-10-17T22:55:13.457Z,10.13
2018-10-17T22:57:16.477Z,10.13
2018-10-17T22:59:19.434Z,10.12
2018-10-17T23:01:22.543Z,10.30
2018-10-17T23:03:25.560Z,10.37
2018-10-17T23:05:28.541Z,10.36
2018-10-17T23:07:31.555Z,10.30
2018-10-17T23:09:35.064Z,10.27
2018-10-17T23:11:38.240Z,10.29
2018-10-17T23:13:41.199Z,10.29
2018-10-17T23:15:44.173Z,10.11
2018-10-17T23:17:47.181Z,10.08
2018-10-17T23:19:50.209Z,10.03
2018-10-17T23:21:53.257Z,9.99
2018-10-17T23:23:56.278Z,9.72
2018-10-17T23:25:59.291Z,9.65
2018-10-17T23:28:02.278Z,9.70
2018-10-17T23:30:07.876Z,9.81
2018-10-17T23:32:10.879Z,9.90
2018-10-17T23:34:13.857Z,10.10
2018-10-17T23:36:16.812Z,9.94
2018-10-17T23:38:19.771Z,9.79
2018-10-17T23:40:22.860Z,9.73
2018-10-17T23:42:25.867Z,9.60
2018-10-17T23:44:28.944Z,9.53
2018-10-17T23:46:31.935Z,9.22
2018-10-17T23:48:36.801Z,9.22
2018-10-17T23:50:39.834Z,9.11
2018-10-17T23:52:42.837Z,8.93
2018-10-17T23:54:45.817Z,8.89
2018-10-17T23:56:48.865Z,9.00
2018-10-17T23:58:51.913Z,8.96
